createdAt,value
2022-12-19T00:00:36.646Z,-3.00
2022-12-19T00:03:07.883Z,-2.90
2022-12-19T00:05:38.844Z,-2.90
2022-12-19T00:08:16.823Z,-3.00
2022-12-19T00:10:56.014Z,-2.90
2022-12-19T00:13:24.598Z,-2.90
2022-12-19T00:15:52.904Z,-2.90
2022-12-19T00:18:21.601Z,-2.70
2022-12-19T00:20:56.591Z,-2.80
2022-12-19T00:23:24.809Z,-2.90
2022-12-19T00:25:54.142Z,-3.10
2022-12-19T00:28:23.807Z,-2.90
2022-12-19T00:30:51.847Z,-2.80
2022-12-19T00:33:23.110Z,-2.70
2022-12-19T00:35:51.147Z,-2.80
2022-12-19T00:38:19.063Z,-2.80
2022-12-19T00:40:47.389Z,-2.80
2022-12-19T00:43:16.756Z,-2.60
2022-12-19T00:45:45.073Z,-2.60
2022-12-19T00:48:13.168Z,-2.50
2022-12-19T00:50:43.872Z,-2.50
2022-12-19T00:53:11.939Z,-2.40
2022-12-19T00:55:40.287Z,-2.30
2022-12-19T00:58:08.181Z,-2.20
2022-12-19T01:00:37.646Z,-2.10
2022-12-19T01:03:05.866Z,-2.10
2022-12-19T01:05:33.982Z,-2.10
2022-12-19T01:08:02.471Z,-2.00
2022-12-19T01:10:30.545Z,-2.20
2022-12-19T01:12:57.669Z,-2.20
2022-12-19T01:15:25.852Z,-2.20
2022-12-19T01:17:55.336Z,-2.20
2022-12-19T01:20:28.994Z,-2.50
2022-12-19T01:22:58.832Z,-2.70
2022-12-19T01:25:28.428Z,-2.80
2022-12-19T01:27:56.736Z,-2.80
2022-12-19T01:30:25.014Z,-2.90
2022-12-19T01:32:55.376Z,-2.80
2022-12-19T01:35:23.509Z,-2.80
2022-12-19T01:37:51.676Z,-2.70
2022-12-19T01:40:20.188Z,-2.50
2022-12-19T01:42:48.994Z,-2.40
2022-12-19T01:45:36.689Z,-2.50
2022-12-19T01:48:19.518Z,-2.30
2022-12-19T01:51:01.167Z,-2.20
2022-12-19T01:53:34.861Z,-2.30
2022-12-19T01:56:09.308Z,-2.40
2022-12-19T01:58:39.115Z,-2.50
2022-12-19T02:01:07.271Z,-2.30
2022-12-19T02:03:39.128Z,-2.20
2022-12-19T02:06:08.451Z,-2.30
2022-12-19T02:08:37.833Z,-2.40
2022-12-19T02:11:05.999Z,-2.30
2022-12-19T02:13:34.137Z,-2.30
2022-12-19T02:16:10.202Z,-2.40
2022-12-19T02:18:49.269Z,-2.40
2022-12-19T02:21:24.362Z,-2.40
2022-12-19T02:24:24.800Z,-2.40
2022-12-19T02:27:01.539Z,-2.40
2022-12-19T02:30:06.435Z,-2.40
2022-12-19T02:32:43.301Z,-2.40
2022-12-19T02:35:16.481Z,-2.40
2022-12-19T02:37:49.078Z,-2.50
2022-12-19T02:40:22.577Z,-2.70
2022-12-19T02:42:55.691Z,-2.70
2022-12-19T02:45:28.910Z,-2.70
2022-12-19T02:48:03.269Z,-2.60
2022-12-19T02:50:39.447Z,-2.80
2022-12-19T02:53:07.808Z,-2.90
2022-12-19T02:55:44.973Z,-2.80
2022-12-19T02:58:52.048Z,-2.60
2022-12-19T03:01:35.610Z,-2.50
2022-12-19T03:04:15.715Z,-2.60
2022-12-19T03:06:49.801Z,-2.50
2022-12-19T03:09:25.330Z,-2.60
2022-12-19T03:12:01.705Z,-2.60
2022-12-19T03:14:32.298Z,-2.60
2022-12-19T03:17:05.688Z,-2.50
2022-12-19T03:19:37.103Z,-2.50
2022-12-19T03:22:05.024Z,-2.40
2022-12-19T03:24:33.144Z,-2.30
2022-12-19T03:27:04.105Z,-2.30
2022-12-19T03:29:35.026Z,-2.20
2022-12-19T03:32:06.754Z,-2.20
2022-12-19T03:34:40.259Z,-2.10
2022-12-19T03:37:16.639Z,-2.10
2022-12-19T03:39:48.920Z,-2.10
2022-12-19T03:42:37.045Z,-2.10
2022-12-19T03:45:07.381Z,-2.10
2022-12-19T03:47:39.139Z,-2.20
2022-12-19T03:50:10.371Z,-2.20
2022-12-19T03:52:46.873Z,-2.10
2022-12-19T03:55:19.633Z,-2.10
2022-12-19T03:57:52.459Z,-2.10
2022-12-19T04:00:22.188Z,-2.10
2022-12-19T04:02:52.253Z,-2.20
2022-12-19T04:05:24.375Z,-2.10
2022-12-19T04:07:55.777Z,-2.10
2022-12-19T04:10:27.418Z,-1.90
2022-12-19T04:13:00.127Z,-2.00
2022-12-19T04:15:35.832Z,-1.90
2022-12-19T04:18:06.352Z,-2.10
2022-12-19T04:20:39.720Z,-2.10
2022-12-19T04:23:12.889Z,-2.00
2022-12-19T04:25:44.136Z,-2.00
2022-12-19T04:28:18.470Z,-2.00
2022-12-19T04:30:47.581Z,-1.90
2022-12-19T04:33:16.028Z,-1.90
2022-12-19T04:35:45.591Z,-1.80
2022-12-19T04:38:13.607Z,-1.70
2022-12-19T04:40:41.985Z,-1.80
2022-12-19T04:43:10.237Z,-1.80
2022-12-19T04:45:38.407Z,-1.70
2022-12-19T04:48:08.202Z,-1.70
2022-12-19T04:50:37.204Z,-1.70
2022-12-19T04:53:07.457Z,-1.70
2022-12-19T04:55:35.416Z,-1.70
2022-12-19T04:58:04.831Z,-1.70
2022-12-19T05:00:32.885Z,-1.80
2022-12-19T05:03:00.988Z,-1.90
2022-12-19T05:05:29.401Z,-1.90
2022-12-19T05:07:57.501Z,-1.80
2022-12-19T05:10:26.888Z,-1.70
2022-12-19T05:12:55.795Z,-1.50
2022-12-19T05:15:23.916Z,-1.50
2022-12-19T05:17:51.811Z,-1.40
2022-12-19T05:20:20.269Z,-1.40
2022-12-19T05:22:48.291Z,-1.40
2022-12-19T05:25:16.686Z,-1.40
2022-12-19T05:27:45.981Z,-1.40
2022-12-19T05:30:14.714Z,-1.40
2022-12-19T05:32:42.652Z,-1.50
2022-12-19T05:35:10.697Z,-1.40
2022-12-19T05:37:38.820Z,-1.30
2022-12-19T05:40:07.963Z,-1.30
2022-12-19T05:42:36.027Z,-1.20
2022-12-19T05:45:05.945Z,-1.00
2022-12-19T05:47:33.879Z,-0.90
2022-12-19T05:50:02.171Z,-1.00
2022-12-19T05:52:30.128Z,-0.80
2022-12-19T05:54:58.283Z,-0.80
2022-12-19T05:57:27.075Z,-0.70
2022-12-19T05:59:55.281Z,-0.80
2022-12-19T06:02:24.817Z,-0.70
2022-12-19T06:04:53.315Z,-0.70
2022-12-19T06:07:21.565Z,-0.70
2022-12-19T06:09:49.692Z,-0.80
2022-12-19T06:12:17.709Z,-0.80
2022-12-19T06:14:45.815Z,-0.80
2022-12-19T06:17:13.737Z,-0.80
2022-12-19T06:19:43.256Z,-0.80
2022-12-19T06:22:11.192Z,-0.90
2022-12-19T06:24:39.111Z,-0.90
2022-12-19T06:27:07.192Z,-0.80
2022-12-19T06:29:35.250Z,-0.60
2022-12-19T06:32:03.332Z,-0.50
2022-12-19T06:35:02.211Z,-0.60
2022-12-19T06:37:20.624Z,-0.60
2022-12-19T06:39:48.588Z,-0.50
2022-12-19T06:42:24.689Z,-0.50
2022-12-19T06:44:54.153Z,-0.40
2022-12-19T06:47:23.450Z,-0.40
2022-12-19T06:49:51.625Z,-0.20
2022-12-19T06:52:21.084Z,-0.20
2022-12-19T06:54:49.017Z,-0.10
2022-12-19T06:57:17.157Z,-0.20
2022-12-19T06:59:45.457Z,-0.10
2022-12-19T07:02:24.269Z,-0.10
2022-12-19T07:04:56.631Z,0.00
2022-12-19T07:07:25.845Z,-0.20
2022-12-19T07:09:53.921Z,-0.20
2022-12-19T07:12:21.817Z,-0.30
2022-12-19T07:14:53.298Z,-0.20
2022-12-19T07:17:23.392Z,-0.10
2022-12-19T07:19:51.724Z,-0.10
2022-12-19T07:26:08.824Z,0.20
2022-12-19T07:28:37.949Z,0.50
2022-12-19T07:40:10.128Z,0.70
2022-12-19T07:55:37.912Z,1.00
2022-12-19T07:58:06.164Z,1.10
2022-12-19T08:00:34.179Z,1.30
2022-12-19T08:03:04.677Z,1.50
2022-12-19T08:05:35.032Z,1.40
2022-12-19T08:08:03.580Z,1.50
2022-12-19T08:10:32.703Z,1.60
2022-12-19T08:13:01.029Z,1.70
2022-12-19T08:15:32.617Z,1.80
2022-12-19T08:18:02.905Z,2.00
2022-12-19T08:20:37.805Z,2.20
2022-12-19T08:23:14.321Z,2.30
2022-12-19T08:25:45.923Z,2.30
2022-12-19T08:28:13.844Z,2.20
2022-12-19T08:30:43.427Z,2.20
2022-12-19T08:33:13.666Z,1.90
2022-12-19T08:35:43.861Z,2.00
2022-12-19T08:38:12.888Z,1.90
2022-12-19T08:40:47.679Z,2.10
2022-12-19T08:43:16.067Z,2.20
2022-12-19T08:45:45.645Z,2.30
2022-12-19T08:52:18.894Z,2.60
2022-12-19T08:54:54.014Z,2.60
2022-12-19T08:57:22.278Z,2.80
2022-12-19T08:59:53.020Z,2.80
2022-12-19T09:02:22.458Z,3.10
2022-12-19T09:06:01.028Z,3.30
2022-12-19T09:07:40.884Z,3.50
2022-12-19T09:10:09.643Z,3.50
2022-12-19T09:12:37.690Z,3.50
2022-12-19T09:15:06.461Z,3.50
2022-12-19T09:17:35.561Z,3.60
2022-12-19T09:20:03.666Z,3.70
2022-12-19T09:22:31.908Z,3.90
2022-12-19T09:25:01.375Z,4.00
2022-12-19T09:27:29.505Z,4.20
2022-12-19T09:29:57.630Z,4.40
2022-12-19T09:32:25.564Z,4.60
2022-12-19T09:34:53.967Z,4.60
2022-12-19T09:37:22.110Z,4.80
2022-12-19T09:39:50.817Z,4.90
2022-12-19T09:42:42.111Z,5.10
2022-12-19T09:57:36.914Z,5.50
2022-12-19T10:00:07.883Z,5.40
2022-12-19T10:02:43.550Z,5.60
2022-12-19T10:05:33.793Z,5.70
2022-12-19T10:08:16.686Z,5.40
2022-12-19T10:12:36.267Z,5.60
2022-12-19T10:13:59.412Z,5.60
2022-12-19T10:16:37.502Z,5.70
2022-12-19T10:19:10.228Z,5.90
2022-12-19T10:22:16.424Z,6.00
2022-12-19T10:25:09.413Z,6.30
2022-12-19T10:27:59.524Z,6.30
2022-12-19T10:30:32.857Z,6.50
2022-12-19T10:33:18.300Z,6.70
2022-12-19T10:35:54.166Z,6.40
2022-12-19T10:38:33.312Z,6.80
2022-12-19T10:41:14.949Z,6.50
2022-12-19T10:43:52.296Z,6.60
2022-12-19T10:46:31.447Z,6.50
2022-12-19T10:49:00.515Z,6.20
2022-12-19T10:51:32.363Z,6.00
2022-12-19T10:54:02.305Z,5.90
2022-12-19T10:56:37.391Z,5.40
2022-12-19T10:59:17.561Z,5.40
2022-12-19T11:01:49.337Z,5.30
2022-12-19T11:04:32.343Z,5.30
2022-12-19T11:07:18.300Z,5.20
2022-12-19T11:09:54.729Z,5.00
2022-12-19T11:18:04.706Z,5.10
2022-12-19T11:19:43.749Z,5.20
2022-12-19T11:24:55.722Z,5.30
2022-12-19T11:29:33.480Z,6.00
2022-12-19T11:30:05.416Z,5.60
2022-12-19T11:30:37.376Z,6.20
2022-12-19T11:32:43.861Z,6.40
2022-12-19T11:35:24.237Z,6.60
2022-12-19T11:37:56.194Z,6.80
2022-12-19T11:40:34.046Z,7.00
2022-12-19T11:43:43.106Z,7.20
2022-12-19T11:46:02.067Z,7.30
2022-12-19T11:48:38.647Z,7.40
2022-12-19T11:51:18.744Z,7.40
2022-12-19T11:53:56.809Z,7.50
2022-12-19T11:56:28.026Z,7.30
2022-12-19T11:58:58.972Z,7.50
2022-12-19T12:01:52.468Z,7.50
2022-12-19T12:04:46.125Z,7.40
2022-12-19T12:07:32.502Z,7.20
2022-12-19T12:13:43.537Z,7.20
2022-12-19T12:19:40.608Z,7.20
2022-12-19T12:28:23.034Z,7.20
2022-12-19T12:31:08.709Z,7.10
2022-12-19T12:31:23.723Z,7.10
2022-12-19T12:31:58.098Z,7.00
2022-12-19T12:32:00.570Z,6.60
2022-12-19T12:35:48.613Z,6.70
2022-12-19T12:40:06.934Z,6.60
2022-12-19T12:42:46.649Z,6.50
2022-12-19T12:45:25.038Z,6.10
2022-12-19T12:47:54.388Z,6.20
2022-12-19T12:50:25.194Z,6.30
2022-12-19T12:52:56.290Z,6.10
2022-12-19T12:55:29.737Z,6.20
2022-12-19T12:57:58.559Z,6.20
2022-12-19T13:00:29.439Z,6.30
2022-12-19T13:03:05.782Z,6.20
2022-12-19T13:05:40.517Z,6.10
2022-12-19T13:08:33.578Z,6.10
2022-12-19T13:11:04.095Z,6.00
2022-12-19T13:13:53.466Z,6.10
2022-12-19T13:16:57.053Z,6.20
2022-12-19T13:19:29.073Z,6.20
2022-12-19T13:22:17.716Z,6.10
2022-12-19T13:24:47.872Z,6.10
2022-12-19T13:27:39.385Z,6.00
2022-12-19T13:30:19.357Z,6.00
2022-12-19T13:33:10.537Z,6.00
2022-12-19T13:37:55.698Z,6.00
2022-12-19T13:39:59.204Z,6.00
2022-12-19T13:41:45.750Z,5.70
2022-12-19T13:44:15.444Z,5.30
2022-12-19T13:46:45.401Z,5.10
2022-12-19T13:49:19.911Z,5.10
2022-12-19T13:51:50.201Z,5.00
2022-12-19T13:54:24.010Z,5.10
2022-12-19T13:56:53.238Z,5.10
2022-12-19T13:59:24.977Z,5.10
2022-12-19T14:01:54.471Z,5.10
2022-12-19T14:04:30.454Z,4.90
2022-12-19T14:07:02.420Z,4.90
2022-12-19T14:11:31.692Z,5.00
2022-12-19T14:13:58.869Z,5.00
2022-12-19T14:15:38.005Z,4.80
2022-12-19T14:18:42.754Z,5.00
2022-12-19T14:22:11.469Z,5.10
2022-12-19T14:24:13.290Z,5.10
2022-12-19T14:28:22.086Z,5.20
2022-12-19T14:29:52.182Z,5.20
2022-12-19T14:33:40.743Z,5.10
2022-12-19T14:36:08.488Z,5.00
2022-12-19T14:39:19.586Z,4.80
2022-12-19T14:41:07.960Z,4.70
2022-12-19T14:44:00.339Z,4.70
2022-12-19T14:54:10.122Z,4.60
2022-12-19T14:54:13.170Z,4.60
2022-12-19T14:54:37.572Z,4.60
2022-12-19T14:56:08.586Z,4.40
2022-12-19T14:58:52.606Z,4.10
2022-12-19T15:01:25.455Z,4.00
2022-12-19T15:04:52.641Z,3.90
2022-12-19T15:07:09.461Z,3.60
2022-12-19T15:10:57.940Z,3.60
2022-12-19T15:14:50.871Z,3.60
2022-12-19T15:15:45.723Z,3.60
2022-12-19T15:18:39.871Z,3.60
2022-12-19T15:21:11.196Z,3.50
2022-12-19T15:23:40.810Z,3.50
2022-12-19T15:26:14.067Z,3.50
2022-12-19T15:28:44.140Z,3.60
2022-12-19T15:31:28.320Z,3.60
2022-12-19T15:36:44.464Z,3.70
2022-12-19T15:39:15.250Z,3.80
2022-12-19T15:41:43.975Z,3.80
2022-12-19T15:44:17.988Z,3.90
2022-12-19T15:46:49.262Z,3.90
2022-12-19T15:49:18.601Z,4.00
2022-12-19T15:51:47.244Z,4.00
2022-12-19T15:57:05.478Z,3.70
2022-12-19T15:59:37.263Z,3.60
2022-12-19T16:02:16.119Z,3.70
2022-12-19T16:04:44.634Z,3.50
2022-12-19T16:07:16.974Z,3.50
2022-12-19T16:09:46.919Z,3.50
2022-12-19T16:12:16.846Z,3.30
2022-12-19T16:14:46.383Z,3.20
2022-12-19T16:17:18.956Z,3.30
2022-12-19T16:19:47.079Z,3.10
2022-12-19T16:22:20.964Z,3.20
2022-12-19T16:24:50.765Z,3.30
2022-12-19T16:27:25.739Z,3.30
2022-12-19T16:29:55.432Z,3.20
2022-12-19T16:32:25.510Z,3.20
2022-12-19T16:34:54.591Z,3.40
2022-12-19T16:37:25.859Z,3.30
2022-12-19T16:39:59.835Z,3.20
2022-12-19T16:42:28.254Z,3.30
2022-12-19T16:44:56.887Z,3.20
2022-12-19T16:47:24.829Z,3.20
2022-12-19T16:49:52.939Z,3.10
2022-12-19T16:52:21.088Z,3.10
2022-12-19T16:54:50.958Z,3.10
2022-12-19T16:57:22.637Z,3.20
2022-12-19T16:59:51.429Z,3.30
2022-12-19T17:02:41.582Z,3.30
2022-12-19T17:05:17.248Z,3.10
2022-12-19T17:07:45.775Z,3.10
2022-12-19T17:10:14.017Z,3.10
2022-12-19T17:12:44.297Z,3.10
2022-12-19T17:15:22.975Z,3.00
2022-12-19T17:17:51.739Z,3.00
2022-12-19T17:20:21.780Z,3.00
2022-12-19T17:22:50.763Z,3.10
2022-12-19T17:25:21.924Z,3.20
2022-12-19T17:27:52.561Z,3.10
2022-12-19T17:30:21.132Z,3.10
2022-12-19T17:32:51.959Z,3.10
2022-12-19T17:35:27.538Z,3.20
2022-12-19T17:37:57.872Z,3.30
2022-12-19T17:40:27.827Z,3.40
2022-12-19T17:42:57.904Z,3.40
2022-12-19T17:45:27.077Z,3.40
2022-12-19T17:48:02.261Z,3.40
2022-12-19T17:50:33.097Z,3.50
2022-12-19T17:53:01.397Z,3.50
2022-12-19T17:55:30.742Z,3.50
2022-12-19T17:58:00.631Z,3.60
2022-12-19T18:00:31.235Z,3.50
2022-12-19T18:03:02.269Z,3.50
2022-12-19T18:05:33.880Z,3.50
2022-12-19T18:08:01.998Z,3.50
2022-12-19T18:10:32.288Z,3.60
2022-12-19T18:13:01.812Z,3.50
2022-12-19T18:15:30.021Z,3.60
2022-12-19T18:17:59.042Z,3.70
2022-12-19T18:20:31.800Z,3.60
2022-12-19T18:23:01.490Z,3.60
2022-12-19T18:25:32.482Z,3.60
2022-12-19T18:28:02.726Z,3.50
2022-12-19T18:30:31.112Z,3.50
2022-12-19T18:33:01.402Z,3.60
2022-12-19T18:35:35.002Z,3.60
2022-12-19T18:38:06.355Z,3.50
2022-12-19T18:40:34.940Z,3.50
2022-12-19T18:43:04.611Z,3.60
2022-12-19T18:45:40.319Z,3.50
2022-12-19T18:48:13.121Z,3.60
2022-12-19T18:50:41.283Z,3.60
2022-12-19T18:53:12.297Z,3.70
2022-12-19T18:55:40.318Z,3.70
2022-12-19T18:58:09.744Z,3.60
2022-12-19T19:00:39.574Z,3.70
2022-12-19T19:03:14.348Z,3.60
2022-12-19T19:05:43.307Z,3.60
2022-12-19T19:08:18.473Z,3.70
2022-12-19T19:10:48.486Z,3.70
2022-12-19T19:13:20.123Z,3.80
2022-12-19T19:15:50.269Z,3.80
2022-12-19T19:18:22.051Z,3.80
2022-12-19T19:20:55.628Z,3.80
2022-12-19T19:23:30.661Z,3.80
2022-12-19T19:25:58.554Z,3.80
2022-12-19T19:28:27.818Z,3.80
2022-12-19T19:30:56.786Z,3.80
2022-12-19T19:33:28.864Z,3.70
2022-12-19T19:36:05.996Z,3.70
2022-12-19T19:38:37.789Z,3.80
2022-12-19T19:41:06.800Z,3.70
2022-12-19T19:43:36.076Z,3.70
2022-12-19T19:46:04.304Z,3.70
2022-12-19T19:48:32.773Z,3.60
2022-12-19T19:51:00.703Z,3.50
2022-12-19T19:53:28.842Z,3.50
2022-12-19T19:55:57.704Z,3.40
2022-12-19T19:58:25.717Z,3.50
2022-12-19T20:00:56.911Z,3.40
2022-12-19T20:03:25.409Z,3.40
2022-12-19T20:05:59.806Z,3.40
2022-12-19T20:08:32.274Z,3.40
2022-12-19T20:11:04.918Z,3.40
2022-12-19T20:13:33.523Z,3.40
2022-12-19T20:16:07.458Z,3.30
2022-12-19T20:18:35.870Z,3.30
2022-12-19T20:21:09.186Z,3.30
2022-12-19T20:23:41.192Z,3.20
2022-12-19T20:26:09.044Z,3.20
2022-12-19T20:28:40.984Z,3.20
2022-12-19T20:31:15.276Z,3.10
2022-12-19T20:33:43.209Z,3.10
2022-12-19T20:36:12.740Z,3.10
2022-12-19T20:38:40.971Z,3.10
2022-12-19T20:41:09.520Z,3.20
2022-12-19T20:43:38.903Z,3.20
2022-12-19T20:46:09.065Z,3.20
2022-12-19T20:48:38.948Z,3.30
2022-12-19T20:51:07.708Z,3.20
2022-12-19T20:53:37.482Z,3.10
2022-12-19T20:56:06.827Z,3.20
2022-12-19T20:58:37.487Z,3.20
2022-12-19T21:01:07.818Z,3.20
2022-12-19T21:03:37.017Z,3.20
2022-12-19T21:06:07.381Z,3.30
2022-12-19T21:08:36.475Z,3.20
2022-12-19T21:11:05.461Z,3.30
2022-12-19T21:13:34.008Z,3.30
2022-12-19T21:16:07.149Z,3.30
2022-12-19T21:18:36.042Z,3.30
2022-12-19T21:21:06.037Z,3.30
2022-12-19T21:23:34.106Z,3.30
2022-12-19T21:26:04.606Z,3.30
2022-12-19T21:28:33.082Z,3.30
2022-12-19T21:31:03.509Z,3.40
2022-12-19T21:33:31.578Z,3.40
2022-12-19T21:36:05.781Z,3.40
2022-12-19T21:38:35.173Z,3.30
2022-12-19T21:41:04.312Z,3.40
2022-12-19T21:43:33.427Z,3.40
2022-12-19T21:46:09.710Z,3.40
2022-12-19T21:48:39.401Z,3.40
2022-12-19T21:51:07.974Z,3.40
2022-12-19T21:53:38.636Z,3.40
2022-12-19T21:56:08.828Z,3.40
2022-12-19T21:58:36.719Z,3.50
2022-12-19T22:01:08.370Z,3.40
2022-12-19T22:03:36.761Z,3.40
2022-12-19T22:06:05.346Z,3.40
2022-12-19T22:08:33.287Z,3.40
2022-12-19T22:11:03.292Z,3.30
2022-12-19T22:13:32.168Z,3.40
2022-12-19T22:16:03.899Z,3.30
2022-12-19T22:18:31.815Z,3.40
2022-12-19T22:21:00.127Z,3.40
2022-12-19T22:23:29.109Z,3.40
2022-12-19T22:26:09.353Z,3.40
2022-12-19T22:28:39.995Z,3.50
2022-12-19T22:31:17.847Z,3.50
2022-12-19T22:33:46.290Z,3.40
2022-12-19T22:36:15.697Z,3.50
2022-12-19T22:38:46.911Z,3.50
2022-12-19T22:41:16.924Z,3.60
2022-12-19T22:43:45.822Z,3.60
2022-12-19T22:46:14.987Z,3.70
2022-12-19T22:48:43.399Z,3.70
2022-12-19T22:51:11.975Z,3.80
2022-12-19T22:53:40.803Z,3.80
2022-12-19T22:56:12.872Z,3.80
2022-12-19T22:58:44.060Z,3.80
2022-12-19T23:01:14.412Z,3.90
2022-12-19T23:03:42.820Z,4.00
2022-12-19T23:06:11.284Z,4.00
2022-12-19T23:08:39.867Z,4.10
2022-12-19T23:11:10.944Z,4.10
2022-12-19T23:13:39.340Z,4.10
2022-12-19T23:16:09.567Z,4.10
2022-12-19T23:18:38.472Z,4.10
2022-12-19T23:21:09.804Z,4.10
2022-12-19T23:23:39.450Z,4.00
2022-12-19T23:26:15.081Z,4.10
2022-12-19T23:28:43.696Z,4.10
2022-12-19T23:31:14.813Z,4.10
2022-12-19T23:33:42.880Z,4.00
2022-12-19T23:36:11.228Z,3.90
2022-12-19T23:38:39.332Z,3.90
2022-12-19T23:41:09.377Z,3.90
2022-12-19T23:43:38.322Z,3.90
2022-12-19T23:46:08.043Z,3.90
2022-12-19T23:48:37.560Z,3.90
2022-12-19T23:51:08.431Z,3.90
2022-12-19T23:53:36.577Z,3.90
2022-12-19T23:56:06.997Z,3.90
2022-12-19T23:58:34.975Z,3.90
